Flight Track Log - Related Links

Times and Time Zones

All times are in EDT time to prevent confusion due to time zone crossing. See the CTL78 flight status page for this flight to view local times or setup timezone preferences in your user account.

Time Position Orientation Groundspeed Altitude Reporting Facility
EDT Latitude Longitude Course Direction KTS MPH feet Rate Location/Type
Fri 10:30:56 PM 41.5461 -81.6956 290° West 135 155 2,000  Level Cleveland Center
Fri 10:31:56 PM 41.5600 -81.7458 290° West 162 186 2,800 744 Climbing Cleveland Center
Fri 10:32:57 PM 41.5783 -81.7989 295° West 150 173 3,500 590 Climbing Cleveland Center
Fri 10:33:58 PM 41.5922 -81.8492 290° West 151 174 4,000 567 Climbing Cleveland Center
Fri 10:35:04 PM 41.6125 -81.9078 295° West 148 170 4,700 545 Climbing Cleveland Center
Fri 10:35:59 PM 41.6244 -81.9525 290° West 151 174 5,100 466 Climbing Cleveland Center
Fri 10:37:00 PM 41.6447 -82.0086 296° West 154 177 5,600 472 Climbing Cleveland Center
Fri 10:38:06 PM 41.6647 -82.0647 296° West 160 184 6,100 189 Climbing Cleveland Center
Fri 10:39:07 PM 41.6828 -82.1233 292° West 166 191 6,000  Descending Cleveland Center
Fri 10:40:07 PM 41.6986 -82.1767 292° West 165 190 6,100  Climbing Cleveland Center
Fri 10:41:02 PM 41.7147 -82.2272 293° West 164 189 6,000 52 Descending Cleveland Center
Fri 10:42:02 PM 41.7367 -82.2833 298° West 161 185 6,200 53 Climbing Cleveland Center
Fri 10:42:56 PM 41.7528 -82.3311 294° West 161 185 6,100 -52 Descending Cleveland Center
Fri 10:43:57 PM 41.7706 -82.3872 293° West 162 186 6,100  Level Cleveland Center
Fri 10:44:57 PM 41.7883 -82.4461 292° West 165 190 6,100  Level Cleveland Center
Fri 10:45:58 PM 41.8042 -82.5053 290° West 165 190 6,100  Level Cleveland Center
Fri 10:46:59 PM 41.8242 -82.5614 296° West 166 191 6,100  Level Cleveland Center
Fri 10:47:59 PM 41.8461 -82.6153 299° West 162 186 6,100  Level Cleveland Center
Fri 10:49:06 PM 41.8869 -82.6556 324° Northwest 155 178 6,100  Level Cleveland Center
Fri 10:50:13 PM 41.9239 -82.6931 323° Northwest 158 182 6,100  Level Cleveland Center
Fri 10:51:13 PM 41.9608 -82.7278 325° Northwest 158 182 6,100  Level Cleveland Center
Fri 10:52:14 PM 41.9956 -82.7569 328° Northwest 158 182 6,100  Level Cleveland Center
Fri 10:53:15 PM 42.0344 -82.7917 326° Northwest 162 186 6,100  Level Cleveland Center
Fri 10:54:15 PM 42.0733 -82.8294 324° Northwest 159 183 6,100  Level Cleveland Center
Fri 10:55:22 PM 42.1103 -82.8642 325° Northwest 162 186 6,100  Level Cleveland Center
Fri 10:56:16 PM 42.1472 -82.8992 325° Northwest 162 186 6,100  Level Cleveland Center
Fri 10:57:17 PM 42.1842 -82.9286 329° Northwest 161 185 6,100  Level Cleveland Center
Fri 10:58:18 PM 42.2231 -82.9581 331° Northwest 160 184 6,100  Level Cleveland Center
Fri 10:59:24 PM 42.2639 -82.9989 324° Northwest 158 182 6,100  Level Cleveland Center
Fri 11:00:19 PM 42.2986 -83.0256 330° Northwest 159 183 6,100 -259 Level Cleveland Center
Fri 11:01:20 PM 42.3378 -83.0550 331° Northwest 162 186 5,600 -496 Descending Cleveland Center
Fri 11:02:20 PM 42.3786 -83.0961 323° Northwest 175 201 5,100 -261 Descending Cleveland Center
Fri 11:03:15 PM 42.4111 -83.1256 326° Northwest 156 180 5,100 -248 Level Cleveland Center
Fri 11:04:21 PM 42.4500 -83.1664 322° Northwest 167 192 4,600 -496 Descending Cleveland Center
Fri 11:05:16 PM 42.4847 -83.1989 325° Northwest 163 188 4,100 -724 Descending Cleveland Center
Fri 11:06:17 PM 42.5233 -83.2400 322° Northwest 172 198 3,200 -626 Descending Cleveland Center
Fri 11:07:11 PM 42.5539 -83.2667 327° Northwest 161 185 2,900 -417 Descending Cleveland Center
Fri 11:08:12 PM 42.5906 -83.3047 323° Northwest 158 182 2,400 -347 Descending Cleveland Center
Fri 11:09:12 PM 42.6231 -83.3428 319° Northwest 155 178 2,200 -345 Descending Cleveland Center
Fri 11:10:31 PM 42.6636 -83.3842 323° Northwest 115 132 1,600 -456 Descending Cleveland Center
Fri 11:12:00 PM 42.6500 -83.4167 304° West  Level FlightAware Approximate
Fri 11:19:00 PM 42.6656 -83.4205 304° West  Level Estimated
Fri 11:20:00 PM 42.6656 -83.4205 304° West  Level Estimated

Login

Don't have an account? Register now (free) for customized features, flight alerts, and more!